Time;durP1;ratioP1;P1;durP2;ratioP2;P2;SDS_P1;SDS_P2;PMS_P1;PMS_P2;Temp;Humidity;BMP_temperature;BMP_pressure;BME280_temperature;BME280_humidity;BME280_pressure;Samples;Min_cycle;Max_cycle;Signal;HPM_P1;HPM_P2
2024/02/14 00:00:43;;;;;;;3.85;2.20;;;;;;;8.51;100.00;101255.41;5114579;28;20051;-67
2024/02/14 00:03:31;;;;;;;6.70;2.45;;;;;;;8.48;100.00;101262.13;5099913;28;20510;-68
2024/02/14 00:06:19;;;;;;;4.97;2.35;;;;;;;8.48;100.00;101262.13;5073056;28;20058;-68
2024/02/14 00:09:07;;;;;;;4.00;2.22;;;;;;;8.50;100.00;101270.06;5080212;28;20096;-67
2024/02/14 00:11:55;;;;;;;5.45;2.53;;;;;;;8.53;100.00;101264.94;5106801;28;20050;-68
2024/02/14 00:14:44;;;;;;;5.43;2.80;;;;;;;8.50;100.00;101265.44;5098464;28;20035;-68
2024/02/14 00:17:33;;;;;;;5.20;2.40;;;;;;;8.52;100.00;101262.50;5083493;28;20074;-68
2024/02/14 00:20:21;;;;;;;3.67;2.30;;;;;;;8.57;100.00;101259.03;5099092;28;20047;-68
2024/02/14 00:23:19;;;;;;;4.30;2.15;;;;;;;8.48;100.00;101253.16;5088315;28;20515;-68
2024/02/14 00:26:07;;;;;;;4.53;2.13;;;;;;;8.43;100.00;101251.19;5099409;28;20464;-68
2024/02/14 00:28:55;;;;;;;3.75;2.20;;;;;;;8.47;100.00;101246.94;5089571;28;20109;-68
2024/02/14 00:31:44;;;;;;;4.05;2.20;;;;;;;8.57;100.00;101242.75;5092296;28;20122;-67
2024/02/14 00:34:36;;;;;;;4.18;2.30;;;;;;;8.61;100.00;101235.75;5099887;28;20054;-69
2024/02/14 00:37:24;;;;;;;4.70;2.30;;;;;;;8.63;100.00;101225.47;5113003;28;20043;-68
2024/02/14 00:40:12;;;;;;;4.03;2.28;;;;;;;8.71;100.00;101233.22;5112324;28;20101;-68
2024/02/14 00:43:00;;;;;;;3.75;2.60;;;;;;;8.67;100.00;101240.22;5098703;28;20530;-68
2024/02/14 00:45:48;;;;;;;3.38;2.13;;;;;;;8.62;100.00;101234.69;5113493;28;20043;-68
2024/02/14 00:48:36;;;;;;;4.95;2.55;;;;;;;8.52;100.00;101236.16;5114316;28;20036;-68
2024/02/14 00:51:24;;;;;;;4.75;2.55;;;;;;;8.53;100.00;101236.97;5097871;27;20109;-67
2024/02/14 00:54:12;;;;;;;3.90;2.42;;;;;;;8.62;100.00;101218.41;5113604;28;20043;-67
2024/02/14 00:57:00;;;;;;;4.57;2.85;;;;;;;8.62;100.00;101229.25;5113389;28;20055;-68
2024/02/14 00:59:48;;;;;;;4.30;2.60;;;;;;;8.51;100.00;101234.50;5111755;28;20088;-67
2024/02/14 01:02:37;;;;;;;6.75;2.63;;;;;;;8.46;100.00;101228.97;5107035;28;20100;-68
2024/02/14 01:05:25;;;;;;;3.88;2.55;;;;;;;8.46;100.00;101236.28;5103038;27;20032;-67
2024/02/14 01:08:14;;;;;;;4.50;2.65;;;;;;;8.58;100.00;101228.91;5084816;28;20169;-67
2024/02/14 01:11:02;;;;;;;4.38;2.55;;;;;;;8.73;100.00;101226.47;5097965;28;20408;-67
2024/02/14 01:13:50;;;;;;;4.78;2.80;;;;;;;8.69;100.00;101235.34;5097936;28;20048;-66
2024/02/14 01:16:45;;;;;;;3.90;1.60;;;;;;;8.67;100.00;101226.63;5097375;28;20050;-67
2024/02/14 01:19:33;;;;;;;5.53;2.83;;;;;;;8.71;100.00;101233.22;5071252;28;20045;-67
2024/02/14 01:22:21;;;;;;;3.53;2.53;;;;;;;8.61;100.00;101238.47;5107109;27;20180;-68
2024/02/14 01:25:23;;;;;;;4.55;2.50;;;;;;;8.61;100.00;101239.31;5133104;27;20039;-68
2024/02/14 01:28:11;;;;;;;5.22;2.05;;;;;;;8.70;100.00;101234.28;5107019;28;20411;-67
2024/02/14 01:30:59;;;;;;;4.95;2.45;;;;;;;8.72;100.00;101240.28;5114582;28;20089;-68
2024/02/14 01:33:47;;;;;;;8.10;3.08;;;;;;;8.64;100.00;101241.53;5081364;28;20047;-68
2024/02/14 01:36:35;;;;;;;4.18;2.50;;;;;;;8.59;100.00;101235.19;5071645;28;20088;-68
2024/02/14 01:39:23;;;;;;;5.05;2.47;;;;;;;8.65;100.00;101236.91;5063257;28;20048;-67
2024/02/14 01:42:11;;;;;;;5.00;2.67;;;;;;;8.62;100.00;101234.69;5077745;28;20055;-67
2024/02/14 01:44:59;;;;;;;5.65;3.22;;;;;;;8.61;100.00;101235.75;5077459;28;20036;-67
2024/02/14 01:47:50;;;;;;;5.45;2.50;;;;;;;8.67;100.00;101237.50;5064451;28;20054;-67
2024/02/14 01:50:40;;;;;;;5.13;2.85;;;;;;;8.62;100.00;101237.41;5070051;28;20035;-67
2024/02/14 01:53:30;;;;;;;7.18;3.28;;;;;;;8.60;100.00;101226.78;5090647;28;20044;-68
2024/02/14 01:56:18;;;;;;;5.10;2.95;;;;;;;8.60;100.00;101234.91;5077238;28;20040;-67
2024/02/14 01:59:06;;;;;;;6.13;2.85;;;;;;;8.61;100.00;101222.16;5075228;28;20044;-67
2024/02/14 02:01:54;;;;;;;3.95;2.50;;;;;;;8.61;100.00;101228.44;5101382;28;20436;-67
2024/02/14 02:04:42;;;;;;;4.50;2.75;;;;;;;8.62;100.00;101224.63;5113603;28;20419;-67
2024/02/14 02:07:32;;;;;;;6.85;3.05;;;;;;;8.67;100.00;101229.34;5110675;28;20044;-67
2024/02/14 02:10:22;;;;;;;5.85;2.67;;;;;;;8.77;100.00;101243.09;5097207;28;20407;-66
2024/02/14 02:13:30;;;;;;;5.30;2.70;;;;;;;8.80;100.00;101234.44;5091351;28;20040;-68
2024/02/14 02:16:38;;;;;;;4.82;2.53;;;;;;;8.77;100.00;101234.94;5091549;28;20040;-67
2024/02/14 02:19:54;;;;;;;4.85;2.55;;;;;;;8.81;100.00;101233.38;5090310;28;20039;-68
2024/02/14 02:22:55;;;;;;;2.55;1.65;;;;;;;8.88;100.00;101234.06;5096499;27;20043;-68
2024/02/14 02:26:03;;;;;;;4.95;2.92;;;;;;;8.86;100.00;101247.06;5096945;28;20401;-67
2024/02/14 02:29:11;;;;;;;6.07;3.03;;;;;;;8.85;100.00;101236.44;5081072;28;20043;-68
2024/02/14 02:31:59;;;;;;;6.32;3.17;;;;;;;8.80;100.00;101239.06;5077117;28;20561;-67
2024/02/14 02:34:47;;;;;;;4.28;2.70;;;;;;;8.79;100.00;101234.72;5095087;28;20036;-68
2024/02/14 02:37:35;;;;;;;5.03;2.42;;;;;;;8.82;100.00;101235.03;5129509;28;20058;-67
2024/02/14 02:40:33;;;;;;;5.25;2.47;;;;;;;8.80;100.00;101234.44;5140374;28;20068;-64
2024/02/14 02:43:41;;;;;;;6.07;2.80;;;;;;;8.81;100.00;101233.38;5119336;28;20569;-68
2024/02/14 02:46:48;;;;;;;4.03;2.75;;;;;;;8.80;100.00;101236.34;5111952;28;20107;-60
2024/02/14 02:50:01;;;;;;;4.90;2.83;;;;;;;8.77;100.00;101225.97;5128756;28;20047;-61
2024/02/14 02:53:09;;;;;;;4.35;2.30;;;;;;;8.86;100.00;101236.19;5110964;28;20127;-67
2024/02/14 02:56:17;;;;;;;5.03;2.70;;;;;;;8.86;100.00;101232.66;5110125;28;20043;-67
2024/02/14 02:59:05;;;;;;;4.88;2.60;;;;;;;8.85;100.00;101226.41;5069507;28;20071;-67
2024/02/14 03:01:53;;;;;;;3.85;2.45;;;;;;;8.81;100.00;101232.56;5097127;28;20055;-68
2024/02/14 03:05:03;;;;;;;3.83;2.30;;;;;;;8.82;100.00;101240.47;5131960;28;20035;-67
2024/02/14 03:08:15;;;;;;;3.85;2.05;;;;;;;8.86;100.00;101233.47;5097226;28;20048;-67
2024/02/14 03:11:25;;;;;;;3.90;2.35;;;;;;;8.85;100.00;101234.56;5109952;28;20424;-67
2024/02/14 03:14:34;;;;;;;3.80;2.47;;;;;;;8.84;100.00;101237.50;5098510;28;20503;-67
2024/02/14 03:17:42;;;;;;;7.88;3.03;;;;;;;8.80;100.00;101237.16;5087964;28;20094;-68
2024/02/14 03:20:30;;;;;;;4.13;2.40;;;;;;;8.80;100.00;101234.44;5094433;28;20048;-68
2024/02/14 03:23:18;;;;;;;6.18;2.67;;;;;;;8.84;100.00;101238.31;5092588;28;20056;-67
2024/02/14 03:26:08;;;;;;;7.10;2.47;;;;;;;8.92;100.00;101240.66;5092193;28;20134;-67
2024/02/14 03:28:56;;;;;;;1.83;1.67;;;;;;;8.89;100.00;101238.41;5093202;28;20200;-67
2024/02/14 03:31:44;;;;;;;4.88;2.90;;;;;;;8.90;100.00;101242.78;5095355;28;20048;-67
2024/02/14 03:34:36;;;;;;;5.72;3.00;;;;;;;8.85;100.00;101248.13;5095541;28;20153;-68
2024/02/14 03:37:25;;;;;;;8.98;3.10;;;;;;;8.83;100.00;101252.19;5114561;28;20051;-68
2024/02/14 03:40:13;;;;;;;5.07;2.90;;;;;;;8.85;100.00;101245.44;5109076;28;20135;-68
2024/02/14 03:43:02;;;;;;;6.28;2.88;;;;;;;8.84;100.00;101249.19;5111063;28;20520;-67
2024/02/14 03:45:51;;;;;;;5.53;2.67;;;;;;;8.87;100.00;101254.13;5108764;28;20119;-68
2024/02/14 03:48:41;;;;;;;7.07;2.88;;;;;;;8.86;100.00;101252.50;5065426;28;20044;-67
2024/02/14 03:51:30;;;;;;;7.13;3.00;;;;;;;8.92;100.00;101251.53;5078487;28;20043;-67
2024/02/14 03:54:18;;;;;;;6.72;3.00;;;;;;;8.90;100.00;101253.66;5079492;28;20040;-68
2024/02/14 03:57:08;;;;;;;6.72;3.15;;;;;;;8.90;100.00;101250.94;5091247;27;20483;-67
2024/02/14 04:00:03;;;;;;;5.25;2.95;;;;;;;8.91;100.00;101249.84;5101228;28;20055;-68
2024/02/14 04:02:58;;;;;;;6.97;2.90;;;;;;;8.94;100.00;101256.69;5112581;28;20050;-68
2024/02/14 04:05:47;;;;;;;6.40;3.30;;;;;;;8.97;100.00;101242.59;5114017;28;20138;-69
2024/02/14 04:08:36;;;;;;;6.72;3.00;;;;;;;8.98;100.00;101254.31;5100043;28;20411;-67
2024/02/14 04:11:24;;;;;;;5.78;3.10;;;;;;;8.97;100.00;101267.06;5095424;28;20051;-68
2024/02/14 04:14:12;;;;;;;5.32;2.90;;;;;;;8.96;100.00;101270.88;5093231;28;20040;-67
2024/02/14 04:17:00;;;;;;;7.75;3.20;;;;;;;8.96;100.00;101268.97;5099880;27;20044;-68
2024/02/14 04:19:48;;;;;;;7.05;3.42;;;;;;;8.93;100.00;101272.19;5113172;28;20053;-67
2024/02/14 04:22:36;;;;;;;5.90;3.15;;;;;;;9.00;100.00;101272.03;5097965;28;20136;-67
2024/02/14 04:25:24;;;;;;;7.13;3.70;;;;;;;8.98;100.00;101282.31;5078401;28;20051;-69
2024/02/14 04:28:12;;;;;;;8.20;3.67;;;;;;;8.99;100.00;101289.38;5107930;27;20529;-67
2024/02/14 04:31:00;;;;;;;5.82;2.88;;;;;;;9.02;100.00;101274.47;5117415;27;20043;-68
2024/02/14 04:33:55;;;;;;;5.65;3.00;;;;;;;9.05;100.00;101271.28;5070776;27;20040;-67
2024/02/14 04:36:43;;;;;;;8.20;3.83;;;;;;;9.03;100.00;101287.84;5098890;28;20066;-68
2024/02/14 04:39:31;;;;;;;5.30;3.00;;;;;;;9.08;100.00;101287.91;5083724;28;20052;-68
2024/02/14 04:42:19;;;;;;;7.10;3.30;;;;;;;9.06;100.00;101286.53;5084772;28;20044;-68
2024/02/14 04:45:08;;;;;;;5.25;3.00;;;;;;;9.06;100.00;101289.22;5105572;28;20040;-66
2024/02/14 04:48:13;;;;;;;5.95;3.58;;;;;;;9.04;100.00;101294.09;5093074;28;20063;-68
2024/02/14 04:51:01;;;;;;;6.85;3.00;;;;;;;9.03;100.00;101295.16;5069595;27;20120;-69
2024/02/14 04:53:53;;;;;;;5.82;3.13;;;;;;;9.02;100.00;101293.50;5124746;27;20070;-67
2024/02/14 04:56:42;;;;;;;5.75;2.97;;;;;;;9.02;100.00;101291.63;5066869;28;20044;-67
2024/02/14 04:59:30;;;;;;;7.15;3.42;;;;;;;9.02;100.00;101293.50;5083863;28;20519;-67
2024/02/14 05:02:18;;;;;;;7.18;3.45;;;;;;;9.01;100.00;101303.56;5113961;27;20043;-68
2024/02/14 05:05:08;;;;;;;9.75;3.90;;;;;;;9.01;100.00;101298.13;5107295;27;20039;-67
2024/02/14 05:08:03;;;;;;;6.72;3.33;;;;;;;9.04;100.00;101304.97;5118416;27;20487;-67
2024/02/14 05:10:51;;;;;;;5.82;3.38;;;;;;;9.02;100.00;101304.38;5114634;27;20040;-68
2024/02/14 05:13:41;;;;;;;7.63;3.40;;;;;;;9.03;100.00;101311.47;5111813;28;20169;-67
2024/02/14 05:16:29;;;;;;;8.35;3.38;;;;;;;9.03;100.00;101306.03;5097356;28;20395;-67
2024/02/14 05:19:17;;;;;;;7.05;3.65;;;;;;;9.05;100.00;101309.34;5084038;28;20185;-67
2024/02/14 05:22:05;;;;;;;6.47;3.33;;;;;;;9.07;100.00;101307.22;5115653;28;20071;-67
2024/02/14 05:24:53;;;;;;;9.20;3.67;;;;;;;9.09;100.00;101311.31;5086922;28;20066;-67
2024/02/14 05:27:42;;;;;;;6.53;3.42;;;;;;;9.07;100.00;101312.66;5112494;28;20165;-67
2024/02/14 05:30:31;;;;;;;7.55;3.85;;;;;;;9.05;100.00;101310.16;5098075;28;20043;-69
2024/02/14 05:33:33;;;;;;;6.30;3.28;;;;;;;9.08;100.00;101314.28;5100096;28;20046;-67
2024/02/14 05:36:25;;;;;;;6.78;3.38;;;;;;;9.11;100.00;101309.16;5096627;28;20048;-68
2024/02/14 05:39:16;;;;;;;5.10;2.80;;;;;;;9.10;100.00;101312.16;5084499;28;20089;-67
2024/02/14 05:42:05;;;;;;;5.80;2.85;;;;;;;9.12;100.00;101318.16;5059172;28;20139;-68
2024/02/14 05:44:53;;;;;;;7.15;3.40;;;;;;;9.09;100.00;101311.31;5111114;28;20511;-68
2024/02/14 05:47:42;;;;;;;6.10;3.30;;;;;;;9.10;100.00;101315.69;5111966;28;20046;-67
2024/02/14 05:50:31;;;;;;;6.82;3.33;;;;;;;9.07;100.00;101315.38;5083173;28;20444;-67
2024/02/14 05:53:20;;;;;;;5.88;3.10;;;;;;;9.10;100.00;101321.13;5096690;28;20055;-67
2024/02/14 05:56:08;;;;;;;6.45;3.33;;;;;;;9.11;100.00;101324.66;5084205;28;20047;-67
2024/02/14 05:58:56;;;;;;;7.05;3.83;;;;;;;9.09;100.00;101321.34;5111825;28;20043;-68
2024/02/14 06:01:44;;;;;;;5.00;2.83;;;;;;;9.11;100.00;101327.38;5096703;28;20055;-67
2024/02/14 06:04:32;;;;;;;5.85;2.90;;;;;;;9.11;100.00;101322.75;5097990;28;20172;-67
2024/02/14 06:07:20;;;;;;;4.00;2.72;;;;;;;9.16;100.00;101322.03;5113263;28;20039;-67
2024/02/14 06:10:09;;;;;;;7.38;3.30;;;;;;;9.16;100.00;101328.31;5114116;27;20039;-67
2024/02/14 06:12:57;;;;;;;6.25;3.60;;;;;;;9.12;100.00;101326.31;5117089;27;20040;-68
2024/02/14 06:15:45;;;;;;;6.10;3.08;;;;;;;9.12;100.00;101326.31;5110364;28;20051;-68
2024/02/14 06:18:34;;;;;;;5.78;2.72;;;;;;;9.14;100.00;101319.56;5083435;28;20070;-67
2024/02/14 06:21:22;;;;;;;7.53;3.67;;;;;;;9.13;100.00;101328.78;5114245;27;20074;-68
2024/02/14 06:24:13;;;;;;;7.47;3.72;;;;;;;9.09;100.00;101338.50;5117380;27;20040;-69
2024/02/14 06:27:02;;;;;;;7.57;3.65;;;;;;;9.08;100.00;101341.47;5091965;28;20091;-68
2024/02/14 06:29:50;;;;;;;8.77;4.10;;;;;;;9.08;100.00;101346.91;5089940;28;20070;-67
2024/02/14 06:32:38;;;;;;;4.15;2.95;;;;;;;9.08;100.00;101352.34;5132145;28;20159;-67
2024/02/14 06:35:27;;;;;;;5.38;3.15;;;;;;;9.09;100.00;101360.25;5115562;28;20130;-66
2024/02/14 06:38:15;;;;;;;5.53;2.92;;;;;;;9.13;100.00;101358.69;5100031;28;20121;-66
2024/02/14 06:41:03;;;;;;;6.03;3.35;;;;;;;9.14;100.00;101357.63;5084256;28;20044;-66
2024/02/14 06:43:51;;;;;;;7.85;3.42;;;;;;;9.15;100.00;101361.16;5098787;28;20135;-67
2024/02/14 06:46:41;;;;;;;6.57;3.47;;;;;;;9.15;100.00;101359.25;5112377;28;20039;-66
2024/02/14 06:49:29;;;;;;;5.95;3.35;;;;;;;9.17;100.00;101357.13;5111457;28;20117;-66
2024/02/14 06:52:17;;;;;;;6.82;3.58;;;;;;;9.20;100.00;101369.41;5113976;28;20048;-69
2024/02/14 06:55:05;;;;;;;7.82;3.95;;;;;;;9.18;100.00;101371.53;5102536;28;20135;-64
2024/02/14 06:57:54;;;;;;;7.97;3.85;;;;;;;9.21;100.00;101368.31;5129567;28;20044;-66
2024/02/14 07:00:42;;;;;;;5.97;3.40;;;;;;;9.25;100.00;101364.06;5112793;28;20047;-67
2024/02/14 07:03:30;;;;;;;7.93;3.83;;;;;;;9.26;100.00;101368.44;5136083;27;20092;-62
2024/02/14 07:06:18;;;;;;;8.05;4.20;;;;;;;9.27;100.00;101380.94;5123110;27;20043;-63
2024/02/14 07:09:06;;;;;;;8.80;3.42;;;;;;;9.36;100.00;101376.75;5149897;27;20043;-66
2024/02/14 07:11:58;;;;;;;8.38;3.90;;;;;;;9.31;100.00;101379.41;5109590;27;20124;-66
2024/02/14 07:14:47;;;;;;;6.28;3.58;;;;;;;9.32;100.00;101385.66;4404722;28;10000391;-67
2024/02/14 07:17:35;;;;;;;8.45;3.88;;;;;;;9.29;100.00;101392.41;5100857;28;20031;-66
2024/02/14 07:20:26;;;;;;;14.32;4.80;;;;;;;9.32;100.00;101378.31;5094787;28;20415;-66
2024/02/14 07:23:14;;;;;;;12.63;4.53;;;;;;;9.32;100.00;101389.19;5082886;28;20543;-67
2024/02/14 07:26:02;;;;;;;7.43;3.90;;;;;;;9.32;100.00;101386.47;5087238;27;20039;-69
2024/02/14 07:28:51;;;;;;;8.48;4.53;;;;;;;9.32;100.00;101388.38;5119161;27;20570;-66
2024/02/14 07:31:39;;;;;;;9.60;4.22;;;;;;;9.29;100.00;101384.25;5109936;27;20036;-66
2024/02/14 07:34:27;;;;;;;7.78;3.78;;;;;;;9.38;100.00;101384.69;5100268;27;20042;-67
2024/02/14 07:37:18;;;;;;;10.02;3.80;;;;;;;9.39;100.00;101381.69;5108080;27;20058;-66
2024/02/14 07:40:07;;;;;;;7.55;4.05;;;;;;;9.36;100.00;101386.81;5110722;27;20593;-67
2024/02/14 07:43:15;;;;;;;8.93;3.97;;;;;;;9.37;100.00;101385.75;5103609;28;20157;-69
2024/02/14 07:46:05;;;;;;;6.75;3.78;;;;;;;9.39;100.00;101380.88;5077102;28;20044;-68
2024/02/14 07:48:53;;;;;;;7.43;3.20;;;;;;;9.48;100.00;101386.75;5095257;28;20054;-66
2024/02/14 07:51:42;;;;;;;10.52;4.15;;;;;;;9.45;100.00;101389.94;5096275;28;20093;-68
2024/02/14 07:54:30;;;;;;;7.35;4.10;;;;;;;9.44;100.00;101388.31;5094682;28;20405;-67
2024/02/14 07:57:18;;;;;;;11.38;4.47;;;;;;;9.39;100.00;101391.75;5091697;28;20496;-67
2024/02/14 08:00:10;;;;;;;8.23;4.03;;;;;;;9.38;100.00;101401.00;5110121;27;20056;-67
2024/02/14 08:02:58;;;;;;;9.68;4.00;;;;;;;9.38;100.00;101396.38;5094990;28;20142;-68
2024/02/14 08:05:46;;;;;;;8.48;4.47;;;;;;;9.38;100.00;101396.38;5111241;28;20051;-67
2024/02/14 08:08:34;;;;;;;8.07;4.20;;;;;;;9.44;100.00;101400.00;5097469;27;20032;-67
2024/02/14 08:11:22;;;;;;;6.90;3.28;;;;;;;9.51;100.00;101403.38;5111049;27;20058;-68
2024/02/14 08:14:12;;;;;;;7.95;3.40;;;;;;;9.55;100.00;101406.44;5086732;28;20123;-66
2024/02/14 08:17:00;;;;;;;10.90;4.55;;;;;;;9.55;100.00;101401.00;5107626;28;20127;-67
2024/02/14 08:19:48;;;;;;;9.77;4.55;;;;;;;9.57;100.00;101404.28;5075429;28;20205;-66
2024/02/14 08:22:37;;;;;;;11.68;5.43;;;;;;;9.52;100.00;101401.47;5095700;28;20047;-65
2024/02/14 08:25:26;;;;;;;12.35;5.53;;;;;;;9.47;100.00;101409.56;5109663;28;20051;-67
2024/02/14 08:28:17;;;;;;;11.65;5.43;;;;;;;9.42;100.00;101412.19;5111964;27;20051;-67
2024/02/14 08:31:12;;;;;;;10.25;5.57;;;;;;;9.39;100.00;101402.63;5129911;27;20039;-67
2024/02/14 08:34:00;;;;;;;12.43;5.47;;;;;;;9.39;100.00;101408.06;5077486;28;20128;-67
2024/02/14 08:36:49;;;;;;;18.23;6.00;;;;;;;9.43;100.00;101411.97;5092216;28;20074;-66
2024/02/14 08:39:37;;;;;;;14.98;5.30;;;;;;;9.47;100.00;101409.56;5075330;28;20060;-66
2024/02/14 08:42:25;;;;;;;16.33;6.00;;;;;;;9.54;100.00;101416.47;5090108;28;20051;-66
2024/02/14 08:45:13;;;;;;;22.55;7.55;;;;;;;9.55;100.00;101411.91;5110355;28;20208;-66
2024/02/14 08:48:01;;;;;;;10.82;5.10;;;;;;;9.55;100.00;101420.06;5082120;27;20296;-65
2024/02/14 08:50:50;;;;;;;27.45;7.38;;;;;;;9.55;100.00;101418.16;5098805;28;20039;-67
2024/02/14 08:53:38;;;;;;;21.85;6.82;;;;;;;9.60;100.00;101420.13;5067792;28;20051;-66
2024/02/14 08:56:26;;;;;;;13.18;5.38;;;;;;;9.63;100.00;101425.06;5111179;28;20372;-67
2024/02/14 08:59:14;;;;;;;16.02;5.95;;;;;;;9.68;100.00;101427.06;5109187;27;20134;-67
2024/02/14 09:02:02;;;;;;;17.88;6.00;;;;;;;9.71;100.00;101421.94;5108439;28;20060;-66
2024/02/14 09:04:51;;;;;;;27.75;8.68;;;;;;;9.76;100.00;101419.28;5110743;28;20065;-67
2024/02/14 09:07:39;;;;;;;13.80;6.00;;;;;;;9.74;100.00;101418.75;5109569;27;20044;-67
2024/02/14 09:10:27;;;;;;;18.50;6.05;;;;;;;9.72;100.00;101423.59;5093412;28;20043;-67
2024/02/14 09:13:15;;;;;;;10.60;4.53;;;;;;;9.69;100.00;101421.38;5106715;28;20090;-68
2024/02/14 09:16:03;;;;;;;26.17;7.28;;;;;;;9.76;100.00;101423.91;5109689;28;20050;-67
2024/02/14 09:18:51;;;;;;;11.73;5.30;;;;;;;9.76;100.00;101423.91;5092545;28;20395;-67
2024/02/14 09:21:39;;;;;;;10.65;4.93;;;;;;;9.76;100.00;101432.91;5122402;27;20100;-66
2024/02/14 09:24:27;;;;;;;18.15;6.15;;;;;;;9.78;100.00;101430.75;5075159;28;20137;-68
2024/02/14 09:27:15;;;;;;;14.40;5.15;;;;;;;9.77;100.00;101448.16;5075809;27;20380;-68
2024/02/14 09:30:04;;;;;;;20.33;6.80;;;;;;;9.88;100.00;101456.50;5083037;27;20048;-67
2024/02/14 09:32:52;;;;;;;31.77;8.75;;;;;;;9.98;100.00;101449.31;5108051;28;20040;-67
2024/02/14 09:35:44;;;;;;;13.55;5.82;;;;;;;9.96;100.00;101437.03;5094602;28;20043;-68
2024/02/14 09:38:32;;;;;;;24.27;7.35;;;;;;;9.98;100.00;101441.16;5109511;28;20047;-67
2024/02/14 09:41:33;;;;;;;17.58;5.05;;;;;;;9.95;100.00;101444.34;5093170;28;20487;-67
2024/02/14 09:44:23;;;;;;;14.93;5.65;;;;;;;9.94;100.00;101441.91;5073653;28;20040;-68
2024/02/14 09:47:11;;;;;;;12.23;5.35;;;;;;;9.91;100.00;101440.50;5075637;28;20044;-66
2024/02/14 09:50:04;;;;;;;14.98;5.18;;;;;;;9.95;100.00;101449.81;5093672;28;20047;-67
2024/02/14 09:52:53;;;;;;;16.77;5.05;;;;;;;9.99;100.00;101455.59;5098050;28;20036;-66
2024/02/14 09:55:41;;;;;;;14.52;5.03;;;;;;;10.00;100.00;101457.22;5074761;28;20530;-67
2024/02/14 09:58:30;;;;;;;11.75;4.60;;;;;;;10.00;100.00;101459.94;5125052;27;20126;-68
2024/02/14 10:01:23;;;;;;;11.75;4.68;;;;;;;9.99;100.00;101458.31;5102871;27;20464;-66
2024/02/14 10:04:11;;;;;;;12.18;5.28;;;;;;;10.01;100.00;101461.63;5075022;28;20496;-67
2024/02/14 10:07:01;;;;;;;15.23;5.55;;;;;;;10.08;100.00;101465.00;5077402;27;20113;-66
2024/02/14 10:09:49;;;;;;;14.40;5.38;;;;;;;10.11;100.00;101459.03;5129019;27;20039;-68
2024/02/14 10:12:40;;;;;;;10.95;4.85;;;;;;;10.12;100.00;101457.94;5107830;28;20047;-66
2024/02/14 10:15:28;;;;;;;15.15;5.15;;;;;;;10.17;100.00;101457.22;5086424;28;20048;-69
2024/02/14 10:18:17;;;;;;;11.45;4.80;;;;;;;10.16;100.00;101461.84;5086348;28;20108;-68
2024/02/14 10:21:05;;;;;;;12.38;4.90;;;;;;;10.17;100.00;101455.34;5075437;28;20067;-66
2024/02/14 10:23:55;;;;;;;14.43;5.25;;;;;;;10.27;100.00;101461.97;5093326;28;20046;-67
2024/02/14 10:26:44;;;;;;;11.55;4.80;;;;;;;10.29;100.00;101470.75;5095872;27;20048;-68
2024/02/14 10:29:32;;;;;;;13.80;4.97;;;;;;;10.23;100.00;101481.56;5101259;28;20084;-68
2024/02/14 10:32:20;;;;;;;13.75;5.60;;;;;;;10.26;100.00;101482.13;5093362;28;20502;-68
2024/02/14 10:35:08;;;;;;;11.10;4.75;;;;;;;10.27;100.00;101478.31;5079928;28;20043;-70
2024/02/14 10:38:00;;;;;;;11.18;4.55;;;;;;;10.18;100.00;101483.38;5108625;28;20388;-67
2024/02/14 10:40:49;;;;;;;12.30;4.88;;;;;;;10.14;100.00;101479.50;5112219;28;20043;-67
2024/02/14 10:43:38;;;;;;;14.25;5.20;;;;;;;10.13;100.00;101488.75;5089403;27;20039;-68
2024/02/14 10:46:31;;;;;;;9.93;3.60;;;;;;;10.14;100.00;101483.03;5095306;27;20036;-68
2024/02/14 10:49:20;;;;;;;12.27;4.95;;;;;;;10.15;100.00;101479.25;5099729;28;20050;-67
2024/02/14 10:52:09;;;;;;;10.23;4.65;;;;;;;10.15;100.00;101489.31;5113330;28;20385;-68
2024/02/14 10:54:57;;;;;;;8.80;4.82;;;;;;;10.15;100.00;101487.44;5098915;28;20036;-68
2024/02/14 10:57:49;;;;;;;9.77;4.47;;;;;;;10.15;100.00;101484.72;5107700;27;20063;-68
2024/02/14 11:00:38;;;;;;;13.65;5.00;;;;;;;10.22;100.00;101477.19;5103068;27;20047;-68
2024/02/14 11:03:26;;;;;;;19.00;7.00;;;;;;;10.30;100.00;101478.69;5096395;27;20184;-67
2024/02/14 11:06:18;;;;;;;22.58;9.35;;;;;;;10.37;100.00;101483.97;5099928;27;20140;-68
2024/02/14 11:09:08;;;;;;;18.83;8.07;;;;;;;10.42;100.00;101484.03;5133410;27;20039;-67
2024/02/14 11:12:02;;;;;;;24.17;10.57;;;;;;;10.40;100.00;101488.91;5127687;28;20040;-65
2024/02/14 11:14:52;;;;;;;22.23;9.45;;;;;;;10.43;100.00;101478.31;5088893;28;20521;-66
2024/02/14 11:17:41;;;;;;;31.02;12.10;;;;;;;10.47;100.00;101473.22;5096609;28;20321;-64
2024/02/14 11:20:34;;;;;;;11.00;5.15;;;;;;;10.46;100.00;101468.81;5096255;28;20082;-68
2024/02/14 11:23:23;;;;;;;15.40;7.25;;;;;;;10.48;100.00;101469.41;5076017;28;20043;-67
2024/02/14 11:26:16;;;;;;;22.48;10.30;;;;;;;10.53;100.00;101465.94;5092693;27;20124;-68
2024/02/14 11:29:04;;;;;;;17.70;7.65;;;;;;;10.53;100.00;101466.75;5097446;28;20032;-67
2024/02/14 11:32:02;;;;;;;13.02;5.68;;;;;;;10.52;100.00;101470.56;5096016;28;20073;-66
2024/02/14 11:34:55;;;;;;;20.52;7.90;;;;;;;10.54;100.00;101462.97;5084089;27;20040;-66
2024/02/14 11:37:44;;;;;;;40.10;17.40;;;;;;;10.58;100.00;101475.00;5094129;28;20047;-67
2024/02/14 11:40:32;;;;;;;17.15;7.60;;;;;;;10.54;100.00;101462.13;5096896;28;20039;-67
2024/02/14 11:43:20;;;;;;;10.15;5.20;;;;;;;10.51;100.00;101468.91;5096601;28;20043;-68
2024/02/14 11:46:09;;;;;;;26.25;11.80;;;;;;;10.55;100.00;101461.88;5115668;27;20593;-67
2024/02/14 11:48:58;;;;;;;32.28;14.63;;;;;;;10.60;100.00;101461.94;5117818;27;20084;-67
2024/02/14 11:51:46;;;;;;;7.40;3.67;;;;;;;10.51;100.00;101455.28;5120161;27;20043;-67
2024/02/14 11:54:34;;;;;;;6.38;3.40;;;;;;;10.47;100.00;101456.06;5117785;27;20380;-68
2024/02/14 11:57:22;;;;;;;8.48;3.67;;;;;;;10.44;100.00;101451.94;5099491;28;20411;-68
2024/02/14 12:00:12;;;;;;;5.88;3.45;;;;;;;10.43;100.00;101447.53;5096277;28;20055;-67
2024/02/14 12:03:30;;;;;;;6.35;3.40;;;;;;;10.41;100.00;101447.81;5095277;28;20051;-66
2024/02/14 12:06:19;;;;;;;14.43;6.40;;;;;;;10.43;100.00;101444.81;5080440;28;20078;-66
2024/02/14 12:09:09;;;;;;;25.70;11.02;;;;;;;10.48;100.00;101442.16;5110003;28;20059;-67
2024/02/14 12:12:00;;;;;;;11.48;5.28;;;;;;;10.52;100.00;101448.75;5079661;28;20084;-66
2024/02/14 12:14:52;;;;;;;19.13;9.00;;;;;;;10.57;100.00;101446.09;5066318;28;20039;-66
2024/02/14 12:17:41;;;;;;;17.10;7.75;;;;;;;10.61;100.00;101441.81;5067144;28;20031;-66
2024/02/14 12:20:29;;;;;;;41.53;18.83;;;;;;;10.62;100.00;101442.63;5095003;28;20128;-67
2024/02/14 12:23:19;;;;;;;31.85;12.70;;;;;;;10.71;100.00;101451.19;5106480;27;20043;-67
2024/02/14 12:26:07;;;;;;;25.88;11.85;;;;;;;10.73;100.00;101444.41;5090284;27;20043;-68
2024/02/14 12:28:55;;;;;;;33.50;15.18;;;;;;;10.77;100.00;101439.25;5070291;28;20066;-67
2024/02/14 12:31:43;;;;;;;41.30;17.33;;;;;;;10.75;100.00;101446.84;5074771;28;20070;-66
2024/02/14 12:34:33;;;;;;;36.58;16.13;;;;;;;10.72;100.00;101452.81;5072691;28;20075;-67
2024/02/14 12:37:21;;;;;;;24.13;11.10;;;;;;;10.76;100.00;101445.78;5068974;28;20040;-67
2024/02/14 12:40:09;;;;;;;8.50;5.10;;;;;;;10.59;100.00;101443.94;5095694;28;20049;-65
2024/02/14 12:42:57;;;;;;;11.23;5.15;;;;;;;10.52;100.00;101435.13;5109322;28;20043;-67
2024/02/14 12:45:46;;;;;;;11.75;5.90;;;;;;;10.48;100.00;101436.72;5062573;28;20039;-67
2024/02/14 12:48:33;;;;;;;13.43;8.10;;;;;;;10.46;100.00;101438.84;5081050;28;20126;-67
2024/02/14 12:51:22;;;;;;;13.65;7.82;;;;;;;10.43;100.00;101437.47;5098979;27;20035;-67
2024/02/14 12:54:12;;;;;;;14.10;6.30;;;;;;;10.48;100.00;101442.16;5115412;27;20047;-67
2024/02/14 12:57:01;;;;;;;14.30;6.60;;;;;;;10.56;100.00;101438.16;5101824;27;20047;-67
2024/02/14 12:59:49;;;;;;;15.93;7.28;;;;;;;10.64;100.00;101441.28;5114386;27;20554;-66
2024/02/14 13:02:40;;;;;;;16.67;7.25;;;;;;;10.69;100.00;101431.53;5101835;27;20090;-67
2024/02/14 13:05:28;;;;;;;13.68;6.50;;;;;;;10.67;100.00;101429.03;5075397;28;20040;-66